Lowry, Colorado
Current Conditions -  °F | °C
As of 2:58 AM on Friday 19 Dec 2014 (Local Time) from KBKF Reporting Station
Scattered Clouds Scattered Clouds  
Wind Chill: 19°   Ceiling: Unl
Heat Index: 25°   Visibility: 7mi
Dew Point: 23°   Wind: 5mph
Humidity: 93%   Direction: 230°SW
Pressure: 30.05"   Gusts: NA
Location:  39.732°N, 104.924°W
Report Text: KBKF 190958Z 23004KT 7SM FEW070 SCT220 M04/M05 A3005 RMK AO2A SLP185 T10391049
Loading
Personal Weather Stations






























Interactive Weather Map New forecast layout! Learn more

10-Day Weather Forecast

Advertisements
Track Severe Weather on mobile